createdAt,value
2023-01-23T00:03:26.473Z,32.5
2023-01-23T00:09:18.763Z,33.6
2023-01-23T00:15:11.444Z,33.9
2023-01-23T00:21:01.398Z,34.4
2023-01-23T00:26:55.003Z,34.6
2023-01-23T00:32:45.273Z,34.7
2023-01-23T00:38:35.418Z,34.4
2023-01-23T00:44:26.180Z,33.6
2023-01-23T00:50:19.052Z,34.4
2023-01-23T00:56:10.752Z,38.2
2023-01-23T01:02:05.485Z,36.6
2023-01-23T01:07:59.236Z,35.2
2023-01-23T01:14:01.384Z,35.5
2023-01-23T01:19:50.226Z,34.4
2023-01-23T01:25:59.077Z,34.3
2023-01-23T01:31:50.119Z,33.6
2023-01-23T01:37:41.799Z,34.8
2023-01-23T01:43:36.871Z,34.1
2023-01-23T01:49:45.823Z,34.6
2023-01-23T01:55:38.012Z,34.1
2023-01-23T02:01:50.968Z,34.9
2023-01-23T02:08:05.225Z,35.2
2023-01-23T02:14:01.192Z,35
2023-01-23T02:20:01.571Z,35.5
2023-01-23T02:25:55.061Z,34.3
2023-01-23T02:31:47.982Z,33.8
2023-01-23T02:37:44.556Z,33.6
2023-01-23T02:43:39.418Z,34.3
2023-01-23T02:49:33.934Z,34.7
2023-01-23T02:55:31.961Z,33.8
2023-01-23T03:01:26.683Z,34.6
2023-01-23T03:07:17.998Z,35.3
2023-01-23T03:13:08.872Z,35.7
2023-01-23T03:19:11.016Z,35
2023-01-23T03:25:07.031Z,35.8
2023-01-23T03:31:04.978Z,32.9
2023-01-23T03:36:57.659Z,32.6
2023-01-23T03:42:50.566Z,33.3
2023-01-23T03:48:43.125Z,33
2023-01-23T03:54:32.531Z,32.7
2023-01-23T04:00:26.713Z,33.4
2023-01-23T04:06:23.443Z,34.1
2023-01-23T04:12:15.583Z,33.4
2023-01-23T04:18:09.148Z,33.6
2023-01-23T04:24:02.723Z,33.1
2023-01-23T04:29:53.857Z,32.5
2023-01-23T04:35:56.543Z,33.5
2023-01-23T04:41:46.920Z,32.6
2023-01-23T04:47:38.660Z,32.5
2023-01-23T04:53:29.859Z,34
2023-01-23T04:59:20.416Z,33.8
2023-01-23T05:05:11.799Z,33
2023-01-23T05:11:05.928Z,32.5
2023-01-23T05:17:00.782Z,32.3
2023-01-23T05:22:50.812Z,31.6
2023-01-23T05:28:42.187Z,33.6
2023-01-23T05:34:33.303Z,31.8
2023-01-23T05:40:29.304Z,32.7
2023-01-23T05:46:23.593Z,32.6
2023-01-23T05:52:15.891Z,33.5
2023-01-23T05:58:05.475Z,33.1
2023-01-23T06:03:54.788Z,32.6
2023-01-23T06:09:50.254Z,32
2023-01-23T06:15:42.931Z,32.4
2023-01-23T06:21:34.138Z,32.2
2023-01-23T06:27:25.053Z,30.5
2023-01-23T06:33:16.830Z,30.8
2023-01-23T06:39:06.244Z,30.2
2023-01-23T06:44:57.609Z,32.2
2023-01-23T06:50:49.418Z,31.8
2023-01-23T06:56:44.598Z,31.3
2023-01-23T07:02:35.832Z,31.5
2023-01-23T07:08:33.653Z,32
2023-01-23T07:14:27.188Z,31.7
2023-01-23T07:20:19.600Z,42.9
2023-01-23T07:26:11.600Z,34
2023-01-23T07:32:02.868Z,33.7
2023-01-23T07:37:53.777Z,31.7
2023-01-23T07:43:51.311Z,30
2023-01-23T07:49:43.839Z,30.7
2023-01-23T07:55:39.299Z,30.7
2023-01-23T08:01:31.290Z,30.5
2023-01-23T08:07:23.863Z,29.9
2023-01-23T08:13:14.226Z,28.8
2023-01-23T08:19:31.037Z,28.9
2023-01-23T08:25:27.045Z,32
2023-01-23T08:31:19.419Z,28.9
2023-01-23T08:37:14.578Z,29.2
2023-01-23T08:43:05.377Z,26
2023-01-23T08:48:59.695Z,34.8
2023-01-23T08:54:50.361Z,28.1
2023-01-23T09:00:43.078Z,30.5
2023-01-23T09:06:37.506Z,30.5
2023-01-23T09:12:28.043Z,26.1
2023-01-23T09:18:23.373Z,25.5
2023-01-23T09:24:13.583Z,24.9
2023-01-23T09:30:04.165Z,25.2
2023-01-23T09:35:55.096Z,25.8
2023-01-23T09:41:49.031Z,26.1
2023-01-23T09:47:37.640Z,25.2
2023-01-23T09:53:41.711Z,24.3
2023-01-23T09:59:44.454Z,25.1
2023-01-23T10:05:39.906Z,22.8
2023-01-23T10:11:31.577Z,21.6
2023-01-23T10:17:21.538Z,18.3
2023-01-23T10:23:12.729Z,16
2023-01-23T10:29:02.569Z,14.4
2023-01-23T10:34:57.732Z,16.7
2023-01-23T10:40:53.890Z,13.4
2023-01-23T10:46:45.730Z,14.3
2023-01-23T10:52:38.388Z,12.9
2023-01-23T10:58:31.455Z,19.1
2023-01-23T11:04:21.858Z,13.3
2023-01-23T11:10:14.346Z,12.6
2023-01-23T11:16:12.572Z,14.5
2023-01-23T11:22:13.571Z,14.8
2023-01-23T11:28:03.883Z,15.1
2023-01-23T11:33:55.408Z,14.9
2023-01-23T11:39:49.633Z,15.3
2023-01-23T11:45:42.157Z,14.1
2023-01-23T11:51:38.759Z,13.9
2023-01-23T11:57:43.421Z,13.3
2023-01-23T12:03:36.619Z,13.4
2023-01-23T12:09:31.107Z,13.7
2023-01-23T12:15:20.372Z,12.2
2023-01-23T12:21:10.701Z,11.8
2023-01-23T12:27:04.685Z,11.5
2023-01-23T12:32:59.189Z,11.3
2023-01-23T12:38:50.036Z,10.5
2023-01-23T12:44:39.430Z,9.7
2023-01-23T12:50:29.480Z,9.6
2023-01-23T12:56:20.517Z,10.5
2023-01-23T13:02:13.259Z,9.6
2023-01-23T13:08:03.535Z,9.3
2023-01-23T13:13:53.348Z,9.3
2023-01-23T13:19:46.069Z,9.4
2023-01-23T13:25:37.741Z,8.8
2023-01-23T13:31:29.852Z,8.8
2023-01-23T13:37:19.845Z,9.7
2023-01-23T13:43:09.419Z,10.1
2023-01-23T14:23:37.577Z,11.1
2023-01-23T14:29:29.948Z,12.1
2023-01-23T14:35:21.718Z,19.8
2023-01-23T14:41:12.036Z,10.4
2023-01-23T14:47:02.811Z,14.9
2023-01-23T14:52:54.577Z,14
2023-01-23T14:58:45.172Z,11
2023-01-23T15:04:35.309Z,10.6
2023-01-23T15:10:23.417Z,11.6
2023-01-23T15:16:11.537Z,11.6
2023-01-23T15:22:00.490Z,12.8
2023-01-23T15:27:49.330Z,12.5
2023-01-23T15:33:38.552Z,13
2023-01-23T15:39:29.323Z,13.2
2023-01-23T15:45:18.429Z,14.2
2023-01-23T15:51:06.234Z,12.1
2023-01-23T15:57:14.183Z,17.5
2023-01-23T16:03:05.029Z,13.9
2023-01-23T16:09:11.348Z,20.3
2023-01-23T16:15:00.408Z,17.9
2023-01-23T16:20:55.404Z,18.2
2023-01-23T16:26:53.776Z,15.5
2023-01-23T16:32:51.006Z,18.7
2023-01-23T16:38:41.978Z,18.4
2023-01-23T16:44:36.311Z,21.5
2023-01-23T16:50:27.775Z,34.5
2023-01-23T16:56:17.414Z,17.8
2023-01-23T17:02:08.345Z,18.3
2023-01-23T17:08:00.243Z,15.1
2023-01-23T17:13:49.993Z,13.2
2023-01-23T17:19:40.812Z,13.9
2023-01-23T17:25:31.758Z,13.2
2023-01-23T17:31:24.784Z,13
2023-01-23T17:37:17.739Z,14.1
2023-01-23T17:43:09.364Z,13.8
2023-01-23T17:48:58.931Z,14.9
2023-01-23T17:54:49.045Z,18
2023-01-23T18:00:39.430Z,16.5
2023-01-23T18:06:37.896Z,13.5
2023-01-23T18:12:28.451Z,15
2023-01-23T18:18:17.602Z,17.4
2023-01-23T18:24:12.928Z,15.7
2023-01-23T18:30:07.423Z,15.7
2023-01-23T18:35:59.347Z,20.3
2023-01-23T18:41:52.312Z,16.3
2023-01-23T18:47:44.878Z,17.4
2023-01-23T18:53:36.589Z,16.8
2023-01-23T18:59:26.539Z,23.4
2023-01-23T19:05:18.180Z,16.4
2023-01-23T19:11:11.266Z,20.2
2023-01-23T19:17:04.563Z,19.8
2023-01-23T19:22:57.514Z,14.3
2023-01-23T19:28:48.383Z,16.3
2023-01-23T19:34:48.091Z,21.9
2023-01-23T19:40:38.991Z,17.1
2023-01-23T19:46:37.176Z,34.3
2023-01-23T19:52:29.357Z,19.4
2023-01-23T19:58:24.099Z,26.7
2023-01-23T20:04:22.844Z,27
2023-01-23T20:10:14.118Z,19.4
2023-01-23T20:16:08.119Z,15.3
2023-01-23T20:21:56.791Z,16.6
2023-01-23T20:27:53.643Z,22.3
2023-01-23T20:33:43.898Z,19.3
2023-01-23T20:39:37.675Z,19.9
2023-01-23T20:45:44.349Z,27.5
2023-01-23T20:51:39.825Z,23.1
2023-01-23T20:57:33.051Z,21.3
2023-01-23T21:03:25.137Z,21.8
2023-01-23T21:09:16.030Z,24.7
2023-01-23T21:15:11.327Z,26.3
2023-01-23T21:21:04.562Z,23.9
2023-01-23T21:26:58.229Z,24.2
2023-01-23T21:32:52.300Z,18.5
2023-01-23T21:38:45.807Z,22.4
2023-01-23T21:44:39.292Z,24.9
2023-01-23T21:50:30.651Z,18.2
2023-01-23T21:56:23.684Z,24.9
2023-01-23T22:02:13.902Z,18.3
2023-01-23T22:08:04.237Z,18.4
2023-01-23T22:13:56.325Z,16.8
2023-01-23T22:19:45.571Z,18.6
2023-01-23T22:25:35.184Z,19.8
2023-01-23T22:31:24.550Z,16.1
2023-01-23T22:37:15.821Z,19.7
2023-01-23T22:43:06.362Z,24.8
2023-01-23T22:48:59.070Z,16.6
2023-01-23T22:54:48.943Z,17.6
2023-01-23T23:00:38.406Z,15.9
2023-01-23T23:06:30.587Z,14.1
2023-01-23T23:12:21.221Z,16.1
2023-01-23T23:18:11.987Z,16.5
2023-01-23T23:24:05.252Z,13.7
2023-01-23T23:29:56.217Z,14.8
2023-01-23T23:35:46.655Z,12.3
2023-01-23T23:41:38.165Z,12.1
2023-01-23T23:48:08.735Z,13.3
2023-01-23T23:54:08.141Z,15.8
